sensor_id;sensor_type;location;lat;lon;timestamp;temperature;humidity
1950;DHT22;975;48.760;9.152;2022-08-19T00:00:39;22.40;84.80
1950;DHT22;975;48.760;9.152;2022-08-19T00:03:07;22.40;84.60
1950;DHT22;975;48.760;9.152;2022-08-19T00:05:35;22.50;84.50
1950;DHT22;975;48.760;9.152;2022-08-19T00:08:04;22.50;84.80
1950;DHT22;975;48.760;9.152;2022-08-19T00:27:50;22.40;84.50
1950;DHT22;975;48.760;9.152;2022-08-19T00:30:18;22.40;85.20
1950;DHT22;975;48.760;9.152;2022-08-19T00:32:46;22.20;85.80
1950;DHT22;975;48.760;9.152;2022-08-19T00:35:13;22.30;85.80
1950;DHT22;975;48.760;9.152;2022-08-19T00:37:41;22.10;86.20
1950;DHT22;975;48.760;9.152;2022-08-19T00:40:12;22.10;86.20
1950;DHT22;975;48.760;9.152;2022-08-19T00:42:41;22.20;86.40
1950;DHT22;975;48.760;9.152;2022-08-19T00:45:10;22.20;85.90
1950;DHT22;975;48.760;9.152;2022-08-19T00:47:38;22.20;86.00
1950;DHT22;975;48.760;9.152;2022-08-19T00:50:09;22.20;85.80
1950;DHT22;975;48.760;9.152;2022-08-19T00:52:40;22.20;85.80
1950;DHT22;975;48.760;9.152;2022-08-19T00:55:14;22.20;86.20
1950;DHT22;975;48.760;9.152;2022-08-19T00:57:47;22.20;86.00
1950;DHT22;975;48.760;9.152;2022-08-19T01:00:17;22.20;86.00
1950;DHT22;975;48.760;9.152;2022-08-19T01:02:45;22.20;86.40
1950;DHT22;975;48.760;9.152;2022-08-19T01:05:17;22.20;86.50
1950;DHT22;975;48.760;9.152;2022-08-19T01:07:47;22.20;86.40
1950;DHT22;975;48.760;9.152;2022-08-19T01:10:19;22.10;86.80
1950;DHT22;975;48.760;9.152;2022-08-19T01:12:49;22.20;86.80
1950;DHT22;975;48.760;9.152;2022-08-19T01:15:19;22.30;86.40
1950;DHT22;975;48.760;9.152;2022-08-19T01:17:48;22.20;86.20
1950;DHT22;975;48.760;9.152;2022-08-19T01:20:19;22.20;86.50
1950;DHT22;975;48.760;9.152;2022-08-19T01:22:50;22.20;86.30
1950;DHT22;975;48.760;9.152;2022-08-19T01:25:24;22.20;86.60
1950;DHT22;975;48.760;9.152;2022-08-19T01:27:54;22.20;86.80
1950;DHT22;975;48.760;9.152;2022-08-19T01:30:24;22.20;86.90
1950;DHT22;975;48.760;9.152;2022-08-19T01:32:53;22.20;86.60
1950;DHT22;975;48.760;9.152;2022-08-19T01:35:22;22.30;87.00
1950;DHT22;975;48.760;9.152;2022-08-19T01:37:54;22.30;86.70
1950;DHT22;975;48.760;9.152;2022-08-19T01:40:25;22.30;86.60
1950;DHT22;975;48.760;9.152;2022-08-19T01:42:53;22.30;87.00
1950;DHT22;975;48.760;9.152;2022-08-19T01:45:23;22.20;86.90
1950;DHT22;975;48.760;9.152;2022-08-19T01:47:51;22.20;87.10
1950;DHT22;975;48.760;9.152;2022-08-19T01:50:18;22.10;87.00
1950;DHT22;975;48.760;9.152;2022-08-19T01:52:46;22.10;87.60
1950;DHT22;975;48.760;9.152;2022-08-19T01:55:18;22.10;87.50
1950;DHT22;975;48.760;9.152;2022-08-19T01:57:50;22.00;88.00
1950;DHT22;975;48.760;9.152;2022-08-19T02:00:20;22.00;88.30
1950;DHT22;975;48.760;9.152;2022-08-19T02:02:48;22.00;88.40
1950;DHT22;975;48.760;9.152;2022-08-19T02:05:15;22.10;88.00
1950;DHT22;975;48.760;9.152;2022-08-19T02:07:44;22.10;87.90
1950;DHT22;975;48.760;9.152;2022-08-19T02:10:15;22.10;88.00
1950;DHT22;975;48.760;9.152;2022-08-19T02:12:44;22.10;88.30
1950;DHT22;975;48.760;9.152;2022-08-19T02:15:12;22.00;88.30
1950;DHT22;975;48.760;9.152;2022-08-19T02:17:41;22.00;88.70
1950;DHT22;975;48.760;9.152;2022-08-19T02:20:12;22.00;89.20
1950;DHT22;975;48.760;9.152;2022-08-19T02:22:40;22.00;88.90
1950;DHT22;975;48.760;9.152;2022-08-19T02:25:09;22.10;88.60
1950;DHT22;975;48.760;9.152;2022-08-19T02:27:39;22.10;88.10
1950;DHT22;975;48.760;9.152;2022-08-19T02:30:09;22.10;88.20
1950;DHT22;975;48.760;9.152;2022-08-19T02:32:37;22.10;88.40
1950;DHT22;975;48.760;9.152;2022-08-19T02:35:06;22.00;88.60
1950;DHT22;975;48.760;9.152;2022-08-19T02:37:33;22.00;89.00
1950;DHT22;975;48.760;9.152;2022-08-19T02:40:19;22.00;88.50
1950;DHT22;975;48.760;9.152;2022-08-19T02:42:48;22.00;89.10
1950;DHT22;975;48.760;9.152;2022-08-19T02:45:16;22.00;89.20
1950;DHT22;975;48.760;9.152;2022-08-19T02:47:44;22.00;89.00
1950;DHT22;975;48.760;9.152;2022-08-19T02:50:11;22.00;89.20
1950;DHT22;975;48.760;9.152;2022-08-19T02:52:39;21.90;89.60
1950;DHT22;975;48.760;9.152;2022-08-19T02:55:08;21.80;89.90
1950;DHT22;975;48.760;9.152;2022-08-19T02:57:35;21.90;89.80
1950;DHT22;975;48.760;9.152;2022-08-19T03:00:06;21.90;89.80
1950;DHT22;975;48.760;9.152;2022-08-19T03:02:34;21.80;89.90
1950;DHT22;975;48.760;9.152;2022-08-19T03:05:03;21.90;89.60
1950;DHT22;975;48.760;9.152;2022-08-19T03:07:31;21.70;90.20
1950;DHT22;975;48.760;9.152;2022-08-19T03:09:59;21.70;90.30
1950;DHT22;975;48.760;9.152;2022-08-19T03:12:26;21.70;90.30
1950;DHT22;975;48.760;9.152;2022-08-19T03:14:54;21.80;90.30
1950;DHT22;975;48.760;9.152;2022-08-19T03:17:23;21.70;90.30
1950;DHT22;975;48.760;9.152;2022-08-19T03:19:50;21.70;90.50
1950;DHT22;975;48.760;9.152;2022-08-19T10:47:56;21.60;90.80
1950;DHT22;975;48.760;9.152;2022-08-19T10:50:23;24.20;87.40
1950;DHT22;975;48.760;9.152;2022-08-19T10:53:12;24.20;84.70
1950;DHT22;975;48.760;9.152;2022-08-19T10:55:39;24.30;84.60
1950;DHT22;975;48.760;9.152;2022-08-19T10:58:25;24.40;84.70
1950;DHT22;975;48.760;9.152;2022-08-19T11:00:53;24.50;83.30
1950;DHT22;975;48.760;9.152;2022-08-19T11:03:21;24.40;82.60
1950;DHT22;975;48.760;9.152;2022-08-19T11:05:57;24.40;83.90
1950;DHT22;975;48.760;9.152;2022-08-19T11:08:27;24.30;82.80
1950;DHT22;975;48.760;9.152;2022-08-19T11:10:59;24.10;82.90
1950;DHT22;975;48.760;9.152;2022-08-19T11:13:27;24.10;82.60
1950;DHT22;975;48.760;9.152;2022-08-19T11:15:59;24.10;82.60
1950;DHT22;975;48.760;9.152;2022-08-19T11:18:28;24.10;83.20
1950;DHT22;975;48.760;9.152;2022-08-19T11:21:05;24.20;82.20
1950;DHT22;975;48.760;9.152;2022-08-19T11:23:34;24.30;81.80
1950;DHT22;975;48.760;9.152;2022-08-19T11:26:01;24.40;81.70
1950;DHT22;975;48.760;9.152;2022-08-19T11:28:30;24.40;82.00
1950;DHT22;975;48.760;9.152;2022-08-19T12:05:39;24.60;80.90
1950;DHT22;975;48.760;9.152;2022-08-19T12:08:07;24.90;78.30
1950;DHT22;975;48.760;9.152;2022-08-19T12:10:35;25.10;78.00
1950;DHT22;975;48.760;9.152;2022-08-19T12:13:03;25.10;76.70
1950;DHT22;975;48.760;9.152;2022-08-19T12:15:35;25.20;76.70
1950;DHT22;975;48.760;9.152;2022-08-19T12:18:03;25.00;76.40
1950;DHT22;975;48.760;9.152;2022-08-19T12:20:34;25.00;77.40
1950;DHT22;975;48.760;9.152;2022-08-19T12:23:02;25.10;76.30
1950;DHT22;975;48.760;9.152;2022-08-19T12:25:29;25.00;76.50
1950;DHT22;975;48.760;9.152;2022-08-19T12:27:56;25.00;76.60
1950;DHT22;975;48.760;9.152;2022-08-19T12:30:24;25.00;76.10
1950;DHT22;975;48.760;9.152;2022-08-19T12:32:53;25.00;76.10
1950;DHT22;975;48.760;9.152;2022-08-19T12:35:20;25.00;77.10
1950;DHT22;975;48.760;9.152;2022-08-19T12:37:48;25.10;75.90
1950;DHT22;975;48.760;9.152;2022-08-19T12:40:16;25.00;76.00
